sensor_id;sensor_type;location;lat;lon;timestamp;P1;durP1;ratioP1;P2;durP2;ratioP2
4078;SDS011;2054;47.858;11.156;2022-10-26T02:30:53;2.47;;;2.00;;
4078;SDS011;2054;47.858;11.156;2022-10-26T02:33:22;6.22;;;2.08;;
4078;SDS011;2054;47.858;11.156;2022-10-26T02:35:51;3.17;;;1.63;;
4078;SDS011;2054;47.858;11.156;2022-10-26T02:38:18;2.15;;;1.80;;
4078;SDS011;2054;47.858;11.156;2022-10-26T02:40:47;4.40;;;2.28;;
4078;SDS011;2054;47.858;11.156;2022-10-26T02:43:16;4.32;;;2.75;;
4078;SDS011;2054;47.858;11.156;2022-10-26T02:45:47;5.38;;;2.30;;
4078;SDS011;2054;47.858;11.156;2022-10-26T02:48:16;2.88;;;2.00;;
4078;SDS011;2054;47.858;11.156;2022-10-26T02:50:46;2.38;;;2.17;;
4078;SDS011;2054;47.858;11.156;2022-10-26T02:53:17;6.00;;;2.08;;
4078;SDS011;2054;47.858;11.156;2022-10-26T02:55:49;4.35;;;2.03;;
4078;SDS011;2054;47.858;11.156;2022-10-26T02:58:18;2.47;;;1.90;;
4078;SDS011;2054;47.858;11.156;2022-10-26T03:00:46;2.78;;;2.58;;
4078;SDS011;2054;47.858;11.156;2022-10-26T03:03:15;4.13;;;1.80;;
4078;SDS011;2054;47.858;11.156;2022-10-26T03:05:43;3.15;;;1.67;;
4078;SDS011;2054;47.858;11.156;2022-10-26T03:08:10;2.00;;;1.80;;
4078;SDS011;2054;47.858;11.156;2022-10-26T03:10:39;3.70;;;1.80;;
4078;SDS011;2054;47.858;11.156;2022-10-26T03:13:06;3.35;;;1.75;;
4078;SDS011;2054;47.858;11.156;2022-10-26T03:15:33;3.17;;;2.10;;
4078;SDS011;2054;47.858;11.156;2022-10-26T03:18:01;2.35;;;1.77;;
4078;SDS011;2054;47.858;11.156;2022-10-26T03:20:28;2.17;;;1.70;;
4078;SDS011;2054;47.858;11.156;2022-10-26T03:22:56;4.00;;;2.10;;
4078;SDS011;2054;47.858;11.156;2022-10-26T03:25:24;3.50;;;1.77;;
4078;SDS011;2054;47.858;11.156;2022-10-26T03:28:00;3.08;;;1.80;;
4078;SDS011;2054;47.858;11.156;2022-10-26T03:30:28;4.32;;;1.80;;
4078;SDS011;2054;47.858;11.156;2022-10-26T03:32:55;2.25;;;1.83;;
4078;SDS011;2054;47.858;11.156;2022-10-26T03:35:23;3.10;;;2.00;;
4078;SDS011;2054;47.858;11.156;2022-10-26T03:37:50;2.30;;;2.10;;
4078;SDS011;2054;47.858;11.156;2022-10-26T03:40:18;4.13;;;1.70;;
4078;SDS011;2054;47.858;11.156;2022-10-26T03:42:45;2.20;;;2.00;;
4078;SDS011;2054;47.858;11.156;2022-10-26T03:45:13;2.22;;;1.95;;
4078;SDS011;2054;47.858;11.156;2022-10-26T03:47:43;2.20;;;2.00;;
4078;SDS011;2054;47.858;11.156;2022-10-26T03:50:11;2.55;;;2.20;;
4078;SDS011;2054;47.858;11.156;2022-10-26T03:52:38;3.25;;;2.78;;
4078;SDS011;2054;47.858;11.156;2022-10-26T03:55:06;3.13;;;2.38;;
4078;SDS011;2054;47.858;11.156;2022-10-26T03:57:35;4.95;;;3.20;;
4078;SDS011;2054;47.858;11.156;2022-10-26T04:00:06;3.40;;;3.10;;
4078;SDS011;2054;47.858;11.156;2022-10-26T04:02:33;5.72;;;4.10;;
4078;SDS011;2054;47.858;11.156;2022-10-26T04:05:00;5.68;;;4.13;;
4078;SDS011;2054;47.858;11.156;2022-10-26T04:07:27;5.47;;;4.20;;
4078;SDS011;2054;47.858;11.156;2022-10-26T04:09:54;4.82;;;3.58;;
4078;SDS011;2054;47.858;11.156;2022-10-26T04:12:22;4.88;;;4.10;;
4078;SDS011;2054;47.858;11.156;2022-10-26T04:14:50;5.38;;;4.05;;
4078;SDS011;2054;47.858;11.156;2022-10-26T04:17:17;5.88;;;3.78;;
4078;SDS011;2054;47.858;11.156;2022-10-26T04:19:44;5.00;;;3.17;;
4078;SDS011;2054;47.858;11.156;2022-10-26T04:22:12;4.10;;;3.00;;
4078;SDS011;2054;47.858;11.156;2022-10-26T04:24:39;4.78;;;2.67;;
4078;SDS011;2054;47.858;11.156;2022-10-26T04:27:06;2.63;;;2.40;;
4078;SDS011;2054;47.858;11.156;2022-10-26T04:29:33;4.38;;;2.70;;
4078;SDS011;2054;47.858;11.156;2022-10-26T04:32:02;6.20;;;3.42;;
4078;SDS011;2054;47.858;11.156;2022-10-26T04:34:29;5.38;;;3.70;;
4078;SDS011;2054;47.858;11.156;2022-10-26T04:36:56;7.45;;;3.63;;
4078;SDS011;2054;47.858;11.156;2022-10-26T04:39:23;4.95;;;4.22;;
4078;SDS011;2054;47.858;11.156;2022-10-26T04:41:50;5.72;;;3.55;;
4078;SDS011;2054;47.858;11.156;2022-10-26T04:44:17;4.60;;;3.42;;
4078;SDS011;2054;47.858;11.156;2022-10-26T04:46:45;4.88;;;2.60;;
4078;SDS011;2054;47.858;11.156;2022-10-26T04:49:13;4.13;;;2.85;;
4078;SDS011;2054;47.858;11.156;2022-10-26T04:51:40;8.88;;;3.17;;
4078;SDS011;2054;47.858;11.156;2022-10-26T04:54:08;11.60;;;7.20;;
4078;SDS011;2054;47.858;11.156;2022-10-26T04:56:35;2.15;;;1.70;;
4078;SDS011;2054;47.858;11.156;2022-10-26T04:59:02;3.15;;;2.05;;
4078;SDS011;2054;47.858;11.156;2022-10-26T05:01:29;2.47;;;2.08;;
4078;SDS011;2054;47.858;11.156;2022-10-26T05:03:56;3.60;;;1.90;;
4078;SDS011;2054;47.858;11.156;2022-10-26T05:06:25;3.90;;;2.60;;
4078;SDS011;2054;47.858;11.156;2022-10-26T05:08:54;3.03;;;2.10;;
4078;SDS011;2054;47.858;11.156;2022-10-26T05:11:21;2.78;;;1.90;;
4078;SDS011;2054;47.858;11.156;2022-10-26T05:13:48;5.95;;;2.38;;
4078;SDS011;2054;47.858;11.156;2022-10-26T05:16:15;3.17;;;2.30;;
4078;SDS011;2054;47.858;11.156;2022-10-26T05:18:42;2.70;;;1.88;;
4078;SDS011;2054;47.858;11.156;2022-10-26T05:21:09;4.70;;;2.13;;
4078;SDS011;2054;47.858;11.156;2022-10-26T05:23:47;3.60;;;1.83;;
4078;SDS011;2054;47.858;11.156;2022-10-26T05:26:15;2.15;;;1.95;;
4078;SDS011;2054;47.858;11.156;2022-10-26T05:28:42;2.53;;;2.00;;
4078;SDS011;2054;47.858;11.156;2022-10-26T05:31:09;4.90;;;2.13;;
4078;SDS011;2054;47.858;11.156;2022-10-26T05:33:37;5.10;;;1.95;;
4078;SDS011;2054;47.858;11.156;2022-10-26T05:36:05;2.78;;;2.03;;
4078;SDS011;2054;47.858;11.156;2022-10-26T05:38:32;3.97;;;1.83;;
4078;SDS011;2054;47.858;11.156;2022-10-26T05:41:00;2.75;;;1.80;;
4078;SDS011;2054;47.858;11.156;2022-10-26T05:43:27;4.22;;;1.80;;
4078;SDS011;2054;47.858;11.156;2022-10-26T05:45:55;1.80;;;1.70;;
4078;SDS011;2054;47.858;11.156;2022-10-26T05:48:22;3.65;;;1.70;;
4078;SDS011;2054;47.858;11.156;2022-10-26T05:50:49;2.88;;;1.75;;
4078;SDS011;2054;47.858;11.156;2022-10-26T05:53:16;2.40;;;1.80;;
4078;SDS011;2054;47.858;11.156;2022-10-26T05:55:44;2.15;;;1.85;;
4078;SDS011;2054;47.858;11.156;2022-10-26T05:58:13;3.45;;;1.85;;
4078;SDS011;2054;47.858;11.156;2022-10-26T06:00:46;3.92;;;1.85;;
4078;SDS011;2054;47.858;11.156;2022-10-26T06:03:20;5.43;;;1.85;;
4078;SDS011;2054;47.858;11.156;2022-10-26T06:05:50;2.53;;;1.65;;
4078;SDS011;2054;47.858;11.156;2022-10-26T06:08:18;2.25;;;1.70;;
4078;SDS011;2054;47.858;11.156;2022-10-26T06:10:45;2.00;;;1.38;;
4078;SDS011;2054;47.858;11.156;2022-10-26T06:13:14;4.53;;;1.77;;
4078;SDS011;2054;47.858;11.156;2022-10-26T06:15:44;3.97;;;1.70;;
4078;SDS011;2054;47.858;11.156;2022-10-26T06:18:17;2.47;;;1.73;;
4078;SDS011;2054;47.858;11.156;2022-10-26T06:20:48;1.75;;;1.50;;
4078;SDS011;2054;47.858;11.156;2022-10-26T06:23:29;2.80;;;1.58;;
4078;SDS011;2054;47.858;11.156;2022-10-26T06:26:00;6.40;;;1.40;;
4078;SDS011;2054;47.858;11.156;2022-10-26T06:28:32;2.78;;;1.73;;
4078;SDS011;2054;47.858;11.156;2022-10-26T06:31:00;2.25;;;1.50;;
4078;SDS011;2054;47.858;11.156;2022-10-26T06:33:28;4.25;;;1.88;;
4078;SDS011;2054;47.858;11.156;2022-10-26T06:35:56;1.70;;;1.60;;
4078;SDS011;2054;47.858;11.156;2022-10-26T06:38:26;3.08;;;1.33;;
4078;SDS011;2054;47.858;11.156;2022-10-26T06:40:54;5.10;;;1.30;;
4078;SDS011;2054;47.858;11.156;2022-10-26T06:43:22;2.13;;;1.25;;
4078;SDS011;2054;47.858;11.156;2022-10-26T06:45:53;2.42;;;1.30;;
4078;SDS011;2054;47.858;11.156;2022-10-26T06:48:23;2.65;;;1.40;;
4078;SDS011;2054;47.858;11.156;2022-10-26T06:50:52;3.53;;;1.10;;
4078;SDS011;2054;47.858;11.156;2022-10-26T06:53:20;4.25;;;1.45;;
4078;SDS011;2054;47.858;11.156;2022-10-26T06:55:50;2.40;;;1.38;;
4078;SDS011;2054;47.858;11.156;2022-10-26T06:58:17;1.77;;;1.20;;
4078;SDS011;2054;47.858;11.156;2022-10-26T07:00:45;3.72;;;1.25;;
4078;SDS011;2054;47.858;11.156;2022-10-26T07:03:15;2.03;;;1.40;;
4078;SDS011;2054;47.858;11.156;2022-10-26T07:05:42;2.40;;;1.33;;
4078;SDS011;2054;47.858;11.156;2022-10-26T07:08:10;3.00;;;1.20;;
4078;SDS011;2054;47.858;11.156;2022-10-26T07:10:37;3.28;;;1.02;;
4078;SDS011;2054;47.858;11.156;2022-10-26T07:13:04;2.30;;;1.05;;
4078;SDS011;2054;47.858;11.156;2022-10-26T07:15:31;4.75;;;1.17;;
4078;SDS011;2054;47.858;11.156;2022-10-26T07:17:58;1.38;;;1.27;;
4078;SDS011;2054;47.858;11.156;2022-10-26T07:20:28;2.70;;;1.20;;
4078;SDS011;2054;47.858;11.156;2022-10-26T07:22:55;1.60;;;1.10;;
4078;SDS011;2054;47.858;11.156;2022-10-26T07:25:23;2.80;;;1.10;;
4078;SDS011;2054;47.858;11.156;2022-10-26T07:27:50;2.17;;;1.13;;
4078;SDS011;2054;47.858;11.156;2022-10-26T07:30:17;2.42;;;1.17;;
4078;SDS011;2054;47.858;11.156;2022-10-26T07:32:45;4.45;;;1.30;;
4078;SDS011;2054;47.858;11.156;2022-10-26T07:35:12;2.95;;;1.15;;
4078;SDS011;2054;47.858;11.156;2022-10-26T07:37:41;3.05;;;1.27;;
4078;SDS011;2054;47.858;11.156;2022-10-26T07:40:08;1.38;;;0.85;;
4078;SDS011;2054;47.858;11.156;2022-10-26T07:42:35;2.30;;;1.20;;
4078;SDS011;2054;47.858;11.156;2022-10-26T07:45:03;2.03;;;1.00;;
4078;SDS011;2054;47.858;11.156;2022-10-26T07:47:30;1.52;;;1.15;;
4078;SDS011;2054;47.858;11.156;2022-10-26T07:49:57;1.30;;;1.13;;
4078;SDS011;2054;47.858;11.156;2022-10-26T07:52:24;3.08;;;1.52;;
4078;SDS011;2054;47.858;11.156;2022-10-26T07:54:53;3.88;;;2.88;;
4078;SDS011;2054;47.858;11.156;2022-10-26T07:57:20;3.75;;;2.47;;
4078;SDS011;2054;47.858;11.156;2022-10-26T07:59:47;2.03;;;1.80;;
4078;SDS011;2054;47.858;11.156;2022-10-26T08:02:14;4.07;;;1.95;;
4078;SDS011;2054;47.858;11.156;2022-10-26T08:04:41;2.80;;;2.00;;
4078;SDS011;2054;47.858;11.156;2022-10-26T08:07:09;1.73;;;1.63;;
4078;SDS011;2054;47.858;11.156;2022-10-26T08:09:36;2.90;;;1.80;;
4078;SDS011;2054;47.858;11.156;2022-10-26T08:12:05;4.82;;;2.83;;
4078;SDS011;2054;47.858;11.156;2022-10-26T08:14:32;2.42;;;2.10;;
4078;SDS011;2054;47.858;11.156;2022-10-26T08:16:59;4.88;;;2.13;;
4078;SDS011;2054;47.858;11.156;2022-10-26T08:19:26;3.47;;;2.00;;
4078;SDS011;2054;47.858;11.156;2022-10-26T08:21:53;3.88;;;1.90;;
4078;SDS011;2054;47.858;11.156;2022-10-26T08:24:20;3.70;;;1.92;;
4078;SDS011;2054;47.858;11.156;2022-10-26T08:26:47;2.00;;;1.80;;
4078;SDS011;2054;47.858;11.156;2022-10-26T08:29:16;2.45;;;1.90;;
4078;SDS011;2054;47.858;11.156;2022-10-26T08:31:43;2.70;;;2.50;;
4078;SDS011;2054;47.858;11.156;2022-10-26T08:34:10;3.05;;;2.08;;
4078;SDS011;2054;47.858;11.156;2022-10-26T08:36:37;2.15;;;1.80;;
4078;SDS011;2054;47.858;11.156;2022-10-26T08:39:05;2.78;;;1.90;;
4078;SDS011;2054;47.858;11.156;2022-10-26T08:41:33;2.38;;;1.92;;
4078;SDS011;2054;47.858;11.156;2022-10-26T08:44:02;5.50;;;2.00;;
4078;SDS011;2054;47.858;11.156;2022-10-26T08:46:33;4.20;;;2.10;;
4078;SDS011;2054;47.858;11.156;2022-10-26T08:49:03;3.03;;;1.85;;
4078;SDS011;2054;47.858;11.156;2022-10-26T08:51:32;3.00;;;2.03;;
4078;SDS011;2054;47.858;11.156;2022-10-26T08:54:02;2.92;;;2.03;;
4078;SDS011;2054;47.858;11.156;2022-10-26T08:56:34;2.65;;;2.08;;
4078;SDS011;2054;47.858;11.156;2022-10-26T08:59:05;3.90;;;2.28;;
4078;SDS011;2054;47.858;11.156;2022-10-26T09:01:37;3.63;;;1.60;;
4078;SDS011;2054;47.858;11.156;2022-10-26T09:04:05;4.40;;;2.47;;
4078;SDS011;2054;47.858;11.156;2022-10-26T09:06:38;4.03;;;2.63;;
4078;SDS011;2054;47.858;11.156;2022-10-26T09:09:08;4.45;;;2.40;;
4078;SDS011;2054;47.858;11.156;2022-10-26T09:11:40;2.53;;;2.08;;
4078;SDS011;2054;47.858;11.156;2022-10-26T09:14:12;2.58;;;1.90;;
4078;SDS011;2054;47.858;11.156;2022-10-26T09:16:44;3.30;;;2.10;;
4078;SDS011;2054;47.858;11.156;2022-10-26T09:19:21;2.53;;;1.70;;
4078;SDS011;2054;47.858;11.156;2022-10-26T09:21:50;2.00;;;1.42;;
4078;SDS011;2054;47.858;11.156;2022-10-26T09:24:21;2.95;;;1.40;;
4078;SDS011;2054;47.858;11.156;2022-10-26T09:26:52;4.45;;;2.70;;
4078;SDS011;2054;47.858;11.156;2022-10-26T09:29:21;6.35;;;2.55;;
4078;SDS011;2054;47.858;11.156;2022-10-26T09:31:51;7.10;;;2.00;;
4078;SDS011;2054;47.858;11.156;2022-10-26T09:34:21;3.15;;;1.90;;
4078;SDS011;2054;47.858;11.156;2022-10-26T09:36:53;2.63;;;2.17;;
4078;SDS011;2054;47.858;11.156;2022-10-26T09:39:23;2.78;;;1.85;;
4078;SDS011;2054;47.858;11.156;2022-10-26T09:41:52;2.80;;;1.90;;
4078;SDS011;2054;47.858;11.156;2022-10-26T09:44:23;2.88;;;1.77;;
4078;SDS011;2054;47.858;11.156;2022-10-26T09:46:55;3.40;;;2.15;;
4078;SDS011;2054;47.858;11.156;2022-10-26T09:49:25;2.83;;;1.83;;
4078;SDS011;2054;47.858;11.156;2022-10-26T09:51:57;8.13;;;1.90;;
4078;SDS011;2054;47.858;11.156;2022-10-26T09:54:24;2.75;;;1.90;;
4078;SDS011;2054;47.858;11.156;2022-10-26T09:56:51;4.53;;;2.00;;
4078;SDS011;2054;47.858;11.156;2022-10-26T09:59:20;4.30;;;2.35;;
4078;SDS011;2054;47.858;11.156;2022-10-26T10:01:48;3.10;;;1.70;;
4078;SDS011;2054;47.858;11.156;2022-10-26T10:04:17;5.00;;;1.67;;
4078;SDS011;2054;47.858;11.156;2022-10-26T10:06:47;3.20;;;1.85;;
4078;SDS011;2054;47.858;11.156;2022-10-26T10:09:15;2.70;;;1.30;;
4078;SDS011;2054;47.858;11.156;2022-10-26T10:11:43;2.65;;;1.30;;
4078;SDS011;2054;47.858;11.156;2022-10-26T10:14:13;2.63;;;1.20;;
4078;SDS011;2054;47.858;11.156;2022-10-26T10:16:47;2.72;;;0.82;;
4078;SDS011;2054;47.858;11.156;2022-10-26T10:19:19;2.50;;;1.00;;
4078;SDS011;2054;47.858;11.156;2022-10-26T10:21:47;4.38;;;0.98;;
4078;SDS011;2054;47.858;11.156;2022-10-26T10:24:21;3.30;;;1.13;;
4078;SDS011;2054;47.858;11.156;2022-10-26T10:26:55;4.20;;;0.93;;
4078;SDS011;2054;47.858;11.156;2022-10-26T10:29:23;4.35;;;1.00;;
4078;SDS011;2054;47.858;11.156;2022-10-26T10:31:54;3.45;;;1.25;;
4078;SDS011;2054;47.858;11.156;2022-10-26T10:34:22;6.30;;;1.60;;
4078;SDS011;2054;47.858;11.156;2022-10-26T10:36:50;4.22;;;1.35;;
4078;SDS011;2054;47.858;11.156;2022-10-26T10:39:25;2.67;;;1.17;;
4078;SDS011;2054;47.858;11.156;2022-10-26T10:41:53;6.75;;;1.30;;
4078;SDS011;2054;47.858;11.156;2022-10-26T10:44:21;3.63;;;1.10;;
4078;SDS011;2054;47.858;11.156;2022-10-26T10:46:49;1.98;;;1.10;;
4078;SDS011;2054;47.858;11.156;2022-10-26T10:49:17;5.15;;;1.75;;
4078;SDS011;2054;47.858;11.156;2022-10-26T10:51:47;5.65;;;1.85;;
4078;SDS011;2054;47.858;11.156;2022-10-26T10:54:17;5.65;;;1.33;;
4078;SDS011;2054;47.858;11.156;2022-10-26T10:56:47;5.53;;;2.05;;
4078;SDS011;2054;47.858;11.156;2022-10-26T10:59:21;2.88;;;1.40;;
4078;SDS011;2054;47.858;11.156;2022-10-26T11:01:55;5.55;;;1.48;;
4078;SDS011;2054;47.858;11.156;2022-10-26T11:04:33;2.95;;;1.20;;
4078;SDS011;2054;47.858;11.156;2022-10-26T11:07:05;6.13;;;1.95;;
4078;SDS011;2054;47.858;11.156;2022-10-26T11:09:33;8.48;;;3.10;;
4078;SDS011;2054;47.858;11.156;2022-10-26T11:12:05;2.25;;;1.20;;
4078;SDS011;2054;47.858;11.156;2022-10-26T11:14:36;7.53;;;2.38;;
4078;SDS011;2054;47.858;11.156;2022-10-26T11:17:05;3.13;;;1.40;;
4078;SDS011;2054;47.858;11.156;2022-10-26T11:19:36;5.22;;;1.30;;
4078;SDS011;2054;47.858;11.156;2022-10-26T11:22:09;5.05;;;1.67;;
4078;SDS011;2054;47.858;11.156;2022-10-26T11:24:38;3.22;;;1.50;;
4078;SDS011;2054;47.858;11.156;2022-10-26T11:27:08;7.57;;;1.50;;
4078;SDS011;2054;47.858;11.156;2022-10-26T11:29:39;5.32;;;2.10;;
4078;SDS011;2054;47.858;11.156;2022-10-26T11:32:12;1.75;;;1.52;;
4078;SDS011;2054;47.858;11.156;2022-10-26T11:34:43;8.38;;;2.03;;
4078;SDS011;2054;47.858;11.156;2022-10-26T11:37:14;5.40;;;2.08;;
4078;SDS011;2054;47.858;11.156;2022-10-26T11:39:44;7.55;;;1.63;;
4078;SDS011;2054;47.858;11.156;2022-10-26T11:42:16;4.82;;;1.60;;
4078;SDS011;2054;47.858;11.156;2022-10-26T11:44:46;6.72;;;1.40;;
4078;SDS011;2054;47.858;11.156;2022-10-26T11:47:16;7.03;;;2.45;;
4078;SDS011;2054;47.858;11.156;2022-10-26T11:49:45;2.35;;;1.40;;
4078;SDS011;2054;47.858;11.156;2022-10-26T11:52:15;3.28;;;1.60;;
4078;SDS011;2054;47.858;11.156;2022-10-26T11:54:44;2.05;;;1.40;;
4078;SDS011;2054;47.858;11.156;2022-10-26T11:57:16;5.43;;;1.48;;
4078;SDS011;2054;47.858;11.156;2022-10-26T11:59:44;8.93;;;2.33;;
4078;SDS011;2054;47.858;11.156;2022-10-26T12:02:14;5.40;;;2.13;;
4078;SDS011;2054;47.858;11.156;2022-10-26T12:04:42;4.00;;;1.63;;
4078;SDS011;2054;47.858;11.156;2022-10-26T12:07:13;5.03;;;1.23;;
4078;SDS011;2054;47.858;11.156;2022-10-26T12:09:45;1.85;;;1.20;;
4078;SDS011;2054;47.858;11.156;2022-10-26T12:12:14;3.63;;;1.20;;
4078;SDS011;2054;47.858;11.156;2022-10-26T12:14:45;3.00;;;1.20;;
4078;SDS011;2054;47.858;11.156;2022-10-26T12:17:14;4.03;;;1.30;;
4078;SDS011;2054;47.858;11.156;2022-10-26T12:19:44;4.07;;;2.00;;
4078;SDS011;2054;47.858;11.156;2022-10-26T12:22:13;3.08;;;1.35;;
4078;SDS011;2054;47.858;11.156;2022-10-26T12:24:42;4.75;;;1.33;;
4078;SDS011;2054;47.858;11.156;2022-10-26T12:30:22;3.47;;;1.20;;
4078;SDS011;2054;47.858;11.156;2022-10-26T12:32:50;2.42;;;1.30;;
4078;SDS011;2054;47.858;11.156;2022-10-26T12:40:49;2.97;;;1.48;;
4078;SDS011;2054;47.858;11.156;2022-10-26T12:43:35;5.13;;;1.48;;
4078;SDS011;2054;47.858;11.156;2022-10-26T12:48:50;2.40;;;1.38;;
4078;SDS011;2054;47.858;11.156;2022-10-26T12:54:01;3.00;;;1.13;;
4078;SDS011;2054;47.858;11.156;2022-10-26T12:56:33;4.25;;;1.35;;
4078;SDS011;2054;47.858;11.156;2022-10-26T12:59:07;4.60;;;1.13;;
4078;SDS011;2054;47.858;11.156;2022-10-26T13:01:53;3.28;;;1.13;;
4078;SDS011;2054;47.858;11.156;2022-10-26T13:07:17;3.28;;;1.10;;
4078;SDS011;2054;47.858;11.156;2022-10-26T13:09:45;4.05;;;1.38;;
4078;SDS011;2054;47.858;11.156;2022-10-26T13:12:16;3.85;;;1.45;;
4078;SDS011;2054;47.858;11.156;2022-10-26T13:14:50;4.78;;;1.30;;
4078;SDS011;2054;47.858;11.156;2022-10-26T13:17:22;3.30;;;1.70;;
4078;SDS011;2054;47.858;11.156;2022-10-26T13:19:50;4.53;;;2.08;;
4078;SDS011;2054;47.858;11.156;2022-10-26T13:22:22;2.35;;;1.38;;
4078;SDS011;2054;47.858;11.156;2022-10-26T13:24:50;5.53;;;2.10;;
4078;SDS011;2054;47.858;11.156;2022-10-26T13:27:23;4.10;;;1.50;;
4078;SDS011;2054;47.858;11.156;2022-10-26T13:32:36;2.25;;;1.40;;
4078;SDS011;2054;47.858;11.156;2022-10-26T13:35:04;5.80;;;1.38;;
4078;SDS011;2054;47.858;11.156;2022-10-26T13:37:37;2.47;;;1.48;;
4078;SDS011;2054;47.858;11.156;2022-10-26T13:40:10;3.67;;;2.10;;
4078;SDS011;2054;47.858;11.156;2022-10-26T13:42:39;5.15;;;1.48;;
4078;SDS011;2054;47.858;11.156;2022-10-26T13:45:10;4.25;;;1.60;;
4078;SDS011;2054;47.858;11.156;2022-10-26T13:47:40;6.40;;;1.38;;
4078;SDS011;2054;47.858;11.156;2022-10-26T13:50:10;4.15;;;1.55;;
4078;SDS011;2054;47.858;11.156;2022-10-26T13:52:41;4.32;;;1.70;;
4078;SDS011;2054;47.858;11.156;2022-10-26T13:55:12;6.28;;;1.42;;
4078;SDS011;2054;47.858;11.156;2022-10-26T13:57:41;3.08;;;1.40;;
4078;SDS011;2054;47.858;11.156;2022-10-26T14:00:13;3.55;;;1.40;;
4078;SDS011;2054;47.858;11.156;2022-10-26T14:02:41;4.97;;;1.80;;
4078;SDS011;2054;47.858;11.156;2022-10-26T14:05:09;5.13;;;1.85;;
4078;SDS011;2054;47.858;11.156;2022-10-26T14:07:39;3.72;;;1.48;;
4078;SDS011;2054;47.858;11.156;2022-10-26T14:10:19;5.55;;;1.70;;
4078;SDS011;2054;47.858;11.156;2022-10-26T14:12:49;7.38;;;1.60;;
4078;SDS011;2054;47.858;11.156;2022-10-26T14:15:17;8.77;;;1.85;;
4078;SDS011;2054;47.858;11.156;2022-10-26T14:17:48;5.85;;;1.55;;
4078;SDS011;2054;47.858;11.156;2022-10-26T14:20:15;4.80;;;1.70;;
4078;SDS011;2054;47.858;11.156;2022-10-26T14:22:44;4.38;;;1.77;;
4078;SDS011;2054;47.858;11.156;2022-10-26T14:25:18;5.00;;;2.05;;
4078;SDS011;2054;47.858;11.156;2022-10-26T14:27:45;6.05;;;1.63;;
4078;SDS011;2054;47.858;11.156;2022-10-26T14:30:19;7.68;;;1.73;;
4078;SDS011;2054;47.858;11.156;2022-10-26T14:32:47;3.60;;;1.45;;
4078;SDS011;2054;47.858;11.156;2022-10-26T14:35:14;2.42;;;1.50;;
4078;SDS011;2054;47.858;11.156;2022-10-26T14:37:42;6.20;;;1.90;;
4078;SDS011;2054;47.858;11.156;2022-10-26T14:40:12;5.40;;;1.67;;
4078;SDS011;2054;47.858;11.156;2022-10-26T14:42:42;5.63;;;1.90;;
4078;SDS011;2054;47.858;11.156;2022-10-26T14:45:24;5.60;;;1.75;;
4078;SDS011;2054;47.858;11.156;2022-10-26T14:47:54;5.68;;;1.83;;
4078;SDS011;2054;47.858;11.156;2022-10-26T14:50:22;6.68;;;1.90;;
4078;SDS011;2054;47.858;11.156;2022-10-26T14:52:52;7.07;;;1.60;;
4078;SDS011;2054;47.858;11.156;2022-10-26T14:55:20;2.58;;;1.42;;
4078;SDS011;2054;47.858;11.156;2022-10-26T14:57:50;6.40;;;2.03;;
4078;SDS011;2054;47.858;11.156;2022-10-26T15:00:18;7.88;;;1.63;;
4078;SDS011;2054;47.858;11.156;2022-10-26T15:02:46;5.38;;;1.75;;
4078;SDS011;2054;47.858;11.156;2022-10-26T15:05:16;7.30;;;1.88;;
4078;SDS011;2054;47.858;11.156;2022-10-26T15:07:44;8.10;;;1.80;;
4078;SDS011;2054;47.858;11.156;2022-10-26T15:12:58;4.45;;;1.67;;
4078;SDS011;2054;47.858;11.156;2022-10-26T15:15:33;2.80;;;1.45;;
4078;SDS011;2054;47.858;11.156;2022-10-26T15:18:01;9.27;;;2.05;;
4078;SDS011;2054;47.858;11.156;2022-10-26T15:20:29;5.15;;;2.17;;
4078;SDS011;2054;47.858;11.156;2022-10-26T15:22:57;4.78;;;1.90;;
4078;SDS011;2054;47.858;11.156;2022-10-26T15:25:24;6.47;;;1.80;;
4078;SDS011;2054;47.858;11.156;2022-10-26T15:27:53;4.25;;;1.75;;
4078;SDS011;2054;47.858;11.156;2022-10-26T15:30:22;8.60;;;2.10;;
4078;SDS011;2054;47.858;11.156;2022-10-26T15:32:50;6.78;;;1.90;;
4078;SDS011;2054;47.858;11.156;2022-10-26T15:35:27;7.28;;;2.25;;
4078;SDS011;2054;47.858;11.156;2022-10-26T15:37:55;5.20;;;1.90;;
4078;SDS011;2054;47.858;11.156;2022-10-26T15:40:23;2.88;;;1.60;;
4078;SDS011;2054;47.858;11.156;2022-10-26T15:42:52;5.80;;;2.00;;
4078;SDS011;2054;47.858;11.156;2022-10-26T15:45:20;3.50;;;1.88;;
4078;SDS011;2054;47.858;11.156;2022-10-26T15:47:49;4.20;;;2.10;;
4078;SDS011;2054;47.858;11.156;2022-10-26T15:50:18;6.07;;;2.30;;
4078;SDS011;2054;47.858;11.156;2022-10-26T15:52:45;4.50;;;1.90;;
4078;SDS011;2054;47.858;11.156;2022-10-26T15:55:13;4.70;;;1.92;;
4078;SDS011;2054;47.858;11.156;2022-10-26T15:57:40;4.97;;;1.70;;
4078;SDS011;2054;47.858;11.156;2022-10-26T16:00:12;8.70;;;2.13;;
4078;SDS011;2054;47.858;11.156;2022-10-26T16:02:42;7.05;;;2.50;;
4078;SDS011;2054;47.858;11.156;2022-10-26T16:05:12;7.30;;;2.15;;
4078;SDS011;2054;47.858;11.156;2022-10-26T16:07:40;4.57;;;1.73;;
4078;SDS011;2054;47.858;11.156;2022-10-26T16:10:11;5.43;;;1.92;;
4078;SDS011;2054;47.858;11.156;2022-10-26T16:12:39;3.25;;;2.08;;
4078;SDS011;2054;47.858;11.156;2022-10-26T16:15:06;9.02;;;2.20;;
4078;SDS011;2054;47.858;11.156;2022-10-26T16:17:34;6.38;;;2.20;;
4078;SDS011;2054;47.858;11.156;2022-10-26T16:20:02;4.30;;;1.85;;
4078;SDS011;2054;47.858;11.156;2022-10-26T16:22:30;7.07;;;1.90;;
4078;SDS011;2054;47.858;11.156;2022-10-26T16:24:57;8.45;;;2.00;;
4078;SDS011;2054;47.858;11.156;2022-10-26T16:27:25;7.75;;;2.17;;
4078;SDS011;2054;47.858;11.156;2022-10-26T16:29:52;7.10;;;2.20;;
4078;SDS011;2054;47.858;11.156;2022-10-26T16:32:19;10.30;;;2.00;;
4078;SDS011;2054;47.858;11.156;2022-10-26T16:34:46;4.45;;;2.38;;
4078;SDS011;2054;47.858;11.156;2022-10-26T16:37:13;9.43;;;2.05;;
4078;SDS011;2054;47.858;11.156;2022-10-26T16:39:42;5.05;;;2.00;;
4078;SDS011;2054;47.858;11.156;2022-10-26T16:42:09;8.00;;;2.88;;
4078;SDS011;2054;47.858;11.156;2022-10-26T16:44:36;6.55;;;2.50;;
4078;SDS011;2054;47.858;11.156;2022-10-26T16:47:04;4.25;;;2.35;;
4078;SDS011;2054;47.858;11.156;2022-10-26T16:49:31;7.13;;;2.60;;
4078;SDS011;2054;47.858;11.156;2022-10-26T16:51:58;4.43;;;2.13;;
4078;SDS011;2054;47.858;11.156;2022-10-26T16:54:25;4.90;;;2.50;;
4078;SDS011;2054;47.858;11.156;2022-10-26T16:56:56;5.45;;;2.22;;
4078;SDS011;2054;47.858;11.156;2022-10-26T16:59:23;7.68;;;3.25;;
4078;SDS011;2054;47.858;11.156;2022-10-26T17:01:50;8.02;;;2.97;;
4078;SDS011;2054;47.858;11.156;2022-10-26T17:04:18;7.70;;;2.80;;
4078;SDS011;2054;47.858;11.156;2022-10-26T17:06:45;8.95;;;2.58;;
4078;SDS011;2054;47.858;11.156;2022-10-26T17:09:12;7.53;;;2.33;;
4078;SDS011;2054;47.858;11.156;2022-10-26T17:11:39;8.68;;;3.08;;
4078;SDS011;2054;47.858;11.156;2022-10-26T17:14:08;9.98;;;2.53;;
4078;SDS011;2054;47.858;11.156;2022-10-26T17:16:35;7.93;;;3.10;;
4078;SDS011;2054;47.858;11.156;2022-10-26T17:19:02;10.63;;;3.22;;
4078;SDS011;2054;47.858;11.156;2022-10-26T17:21:30;8.45;;;3.00;;
4078;SDS011;2054;47.858;11.156;2022-10-26T17:23:58;7.28;;;2.63;;
4078;SDS011;2054;47.858;11.156;2022-10-26T17:26:25;6.30;;;2.83;;
4078;SDS011;2054;47.858;11.156;2022-10-26T17:28:53;7.35;;;2.42;;
4078;SDS011;2054;47.858;11.156;2022-10-26T17:31:22;7.85;;;3.17;;
4078;SDS011;2054;47.858;11.156;2022-10-26T17:33:50;9.80;;;3.60;;
4078;SDS011;2054;47.858;11.156;2022-10-26T17:36:18;5.75;;;2.90;;
4078;SDS011;2054;47.858;11.156;2022-10-26T17:38:47;8.60;;;3.75;;
4078;SDS011;2054;47.858;11.156;2022-10-26T17:41:14;7.50;;;2.90;;
4078;SDS011;2054;47.858;11.156;2022-10-26T17:43:42;4.93;;;2.65;;
4078;SDS011;2054;47.858;11.156;2022-10-26T17:46:10;6.25;;;2.33;;
4078;SDS011;2054;47.858;11.156;2022-10-26T17:48:39;8.73;;;2.42;;
4078;SDS011;2054;47.858;11.156;2022-10-26T17:51:08;8.40;;;2.20;;
4078;SDS011;2054;47.858;11.156;2022-10-26T17:53:36;7.95;;;2.70;;
4078;SDS011;2054;47.858;11.156;2022-10-26T17:56:03;4.93;;;3.40;;
4078;SDS011;2054;47.858;11.156;2022-10-26T17:58:31;5.38;;;2.10;;
4078;SDS011;2054;47.858;11.156;2022-10-26T18:00:59;6.47;;;2.53;;
4078;SDS011;2054;47.858;11.156;2022-10-26T18:03:27;6.55;;;2.50;;